Last 24 Hours

Canyon Lodge - 8,343ft

5 Minute Data | America/Los_Angeles
as of 9/3/26 3:10 PM PDT
Date & Time Temp (°F) RH (%) Dew Pt (°F) Wet Bulb (°F) Wind Dir (°) Wind Spd (mph) Wind Gust (mph) Wind Gst Dir (°)
9/3/26 - 1510 55.5 40 31.3 44.4 S | 182 8.9 22.2 S | 179
9/3/26 - 1505 55.1 39 30.7 44.1 S | 188 9.7 24.3 SSE | 160
9/3/26 - 1500 55.7 39 31.3 44.5 S | 182 7.4 19.2 S | 183
9/3/26 - 1455 55.2 40 31.2 44.3 S | 171 11.1 25.0 S | 182
9/3/26 - 1450 55.5 41 32.3 44.8 SSW | 192 9.7 21.3 SSW | 192
9/3/26 - 1445 54.7 43 32.6 44.5 S | 180 12.7 25.6 SSW | 193
9/3/26 - 1440 56.1 43 33.8 45.6 SSW | 195 5.6 19.6 SSE | 165
9/3/26 - 1435 56.0 42 33.5 45.4 SSW | 195 7.5 24.7 SSW | 198
9/3/26 - 1430 56.8 42 34.1 46.0 S | 181 6.9 23.3 SW | 216
9/3/26 - 1425 56.9 42 34.0 46.0 SSW | 193 6.9 19.0 S | 174
9/3/26 - 1420 56.2 42 33.2 45.4 S | 191 9.0 19.0 S | 184
9/3/26 - 1415 57.0 41 33.8 46.0 SSW | 208 6.4 19.2 SSW | 192
9/3/26 - 1410 57.0 40 33.1 45.7 S | 191 7.7 17.2 S | 170
9/3/26 - 1405 55.6 41 32.1 44.8 SW | 222 7.5 18.9 SSW | 207
9/3/26 - 1400 56.3 41 33.2 45.5 S | 180 8.1 19.1 S | 190
9/3/26 - 1355 56.0 41 32.5 45.1 SSW | 206 9.8 23.4 SW | 230
9/3/26 - 1350 55.3 40 31.2 44.3 SSW | 193 12.2 25.3 SSE | 165
9/3/26 - 1345 55.6 40 31.6 44.6 SSW | 198 8.8 22.8 SW | 222
9/3/26 - 1340 55.5 40 31.5 44.5 SSW | 195 9.7 19.5 SSW | 192
9/3/26 - 1335 55.7 40 31.6 44.6 SSW | 195 10.6 25.5 SSW | 193
9/3/26 - 1330 55.7 40 31.7 44.6 SSW | 200 10.1 21.6 S | 185
9/3/26 - 1325 55.4 40 31.5 44.4 SSW | 207 10.1 24.8 SSW | 195
9/3/26 - 1320 56.4 40 32.6 45.3 SSW | 199 8.9 23.6 S | 176
9/3/26 - 1315 55.4 40 31.8 44.5 S | 179 9.8 28.7 SSE | 150
9/3/26 - 1310 55.6 41 32.3 44.8 SSW | 194 9.7 24.0 S | 189
9/3/26 - 1305 55.0 42 32.2 44.5 SSW | 199 10.9 28.0 SSW | 198
9/3/26 - 1300 56.1 43 33.8 45.6 SSW | 207 6.6 20.6 SE | 134
9/3/26 - 1255 54.8 43 32.7 44.6 SSW | 195 10.7 29.4 S | 188
9/3/26 - 1250 55.1 44 33.6 45.1 SSW | 198 11.5 24.3 S | 190
9/3/26 - 1245 55.6 44 34.2 45.6 S | 185 9.7 27.3 S | 189
9/3/26 - 1240 54.9 44 33.6 45.0 S | 189 6.7 19.9 SSW | 198
9/3/26 - 1235 54.3 44 33.1 44.5 SSW | 204 10.1 22.0 S | 190
9/3/26 - 1230 55.2 44 33.9 45.3 SSW | 209 6.9 15.6 S | 190
9/3/26 - 1225 54.9 44 33.6 45.0 SSW | 195 10.8 25.3 S | 184
9/3/26 - 1220 54.4 44 33.1 44.6 SSW | 200 10.6 21.6 SW | 229
9/3/26 - 1215 54.9 43 33.1 44.8 S | 183 9.8 21.2 SE | 143
9/3/26 - 1210 54.7 43 32.7 44.6 SSW | 202 9.4 18.1 SW | 215
9/3/26 - 1205 54.6 44 33.2 44.7 SSW | 205 8.6 18.8 SSE | 156
9/3/26 - 1200 54.5 43 32.4 44.4 SSW | 209 7.7 21.6 SSE | 156
9/3/26 - 1155 54.2 42 31.5 43.9 SW | 216 8.3 21.6 SSW | 194
9/3/26 - 1150 54.5 42 32.2 44.3 SSW | 193 10.6 25.9 SSE | 160
9/3/26 - 1145 54.2 42 31.8 44.0 SSW | 198 9.7 26.5 S | 185
9/3/26 - 1140 54.2 43 32.0 44.1 SSW | 202 8.3 22.0 SSW | 195
9/3/26 - 1135 53.8 42 31.3 43.6 SSW | 209 9.3 23.4 SSW | 198
9/3/26 - 1130 53.4 42 30.7 43.2 SSW | 202 9.5 24.6 SSE | 160
9/3/26 - 1125 53.5 42 31.0 43.4 SSW | 192 8.4 20.1 SSW | 199
9/3/26 - 1120 52.8 42 30.5 42.9 SSW | 205 9.3 23.2 WSW | 254
9/3/26 - 1115 53.1 43 31.0 43.2 SSW | 196 8.2 21.9 SSW | 198
9/3/26 - 1110 53.0 43 31.3 43.3 SSW | 201 7.8 22.6 SSW | 199
9/3/26 - 1105 53.5 42 31.0 43.4 S | 182 7.6 21.2 SSE | 166
9/3/26 - 1100 53.1 42 30.9 43.2 S | 182 9.6 22.9 SSE | 159
9/3/26 - 1055 52.5 43 30.8 42.9 SSW | 196 10.8 24.6 SSW | 193
9/3/26 - 1050 52.5 44 31.5 43.1 SSW | 193 10.4 18.8 S | 190
9/3/26 - 1045 52.3 44 31.3 43.0 SSW | 193 9.7 24.6 S | 191
9/3/26 - 1040 52.8 45 31.8 43.4 SSW | 211 8.2 20.5 SSW | 205
9/3/26 - 1035 52.2 44 30.8 42.7 SSW | 200 8.5 23.9 S | 188
9/3/26 - 1030 52.1 44 30.8 42.7 SSW | 206 7.9 23.3 SSW | 202
9/3/26 - 1025 52.5 45 32.0 43.3 SSW | 208 8.4 24.8 SE | 141
9/3/26 - 1020 52.2 45 31.6 43.0 SSW | 205 9.5 22.5 S | 183
9/3/26 - 1015 52.4 45 31.6 43.1 SSW | 212 7.6 20.6 WSW | 245
9/3/26 - 1010 52.3 45 31.6 43.1 SW | 216 7.0 25.1 S | 186
9/3/26 - 1005 52.2 45 31.5 43.0 SSW | 203 8.6 21.8 SSW | 195
9/3/26 - 1000 52.3 45 31.7 43.1 SSW | 197 7.0 17.7 S | 188
9/3/26 - 0955 52.0 45 31.5 42.8 SSW | 192 7.0 17.8 SW | 224
9/3/26 - 0950 51.5 45 31.0 42.5 SW | 232 6.7 20.5 W | 272
9/3/26 - 0945 52.0 45 31.4 42.8 SW | 236 5.5 15.4 SW | 233
9/3/26 - 0940 52.4 45 31.6 43.1 SSW | 194 5.3 12.8 S | 180
9/3/26 - 0935 51.5 45 30.8 42.4 SSW | 205 7.2 24.9 SSW | 192
9/3/26 - 0930 51.7 44 30.8 42.5 SW | 217 4.8 14.2 SSW | 197
9/3/26 - 0925 51.5 44 30.2 42.2 SW | 218 3.4 9.6 SW | 232
9/3/26 - 0920 51.5 43 29.7 42.0 SSW | 205 5.4 17.3 SE | 146
9/3/26 - 0915 50.5 43 28.9 41.3 SSW | 199 2.7 8.7 SSE | 158
9/3/26 - 0910 50.3 43 28.7 41.1 SW | 227 5.9 13.0 W | 267
9/3/26 - 0905 50.8 43 29.4 41.5 SW | 216 4.6 18.2 WSW | 246
9/3/26 - 0900 49.8 43 28.4 40.8 S | 188 6.6 15.4 SSE | 155
9/3/26 - 0855 49.8 43 28.5 40.8 SSW | 202 5.9 15.7 W | 269
9/3/26 - 0850 50.3 44 29.2 41.3 SW | 215 3.2 12.1 SSW | 210
9/3/26 - 0845 50.2 43 28.7 41.0 SW | 218 4.5 12.4 SW | 221
9/3/26 - 0840 49.8 43 28.4 40.7 SSW | 207 4.5 13.5 S | 182
9/3/26 - 0835 49.2 43 28.0 40.3 SSE | 166 5.0 12.0 SSE | 164
9/3/26 - 0830 49.1 44 28.4 40.4 SW | 217 4.7 12.7 SSW | 193
9/3/26 - 0825 49.4 44 28.5 40.6 S | 186 3.4 12.0 SSW | 213
9/3/26 - 0820 49.0 45 28.4 40.4 SSW | 212 4.1 10.2 S | 170
9/3/26 - 0815 48.8 45 28.2 40.2 SW | 217 5.8 13.9 SW | 218
9/3/26 - 0810 49.0 44 28.3 40.3 S | 190 3.2 13.5 WSW | 249
9/3/26 - 0805 48.4 44 27.8 39.8 SSW | 197 5.0 12.1 SSW | 202
9/3/26 - 0800 48.7 44 27.6 39.9 SSW | 210 4.8 12.8 SW | 224
9/3/26 - 0755 48.4 44 27.4 39.7 SSW | 199 8.0 24.7 SSW | 199
9/3/26 - 0750 48.6 44 27.8 39.9 S | 189 5.3 16.6 SSE | 163
9/3/26 - 0745 48.7 45 28.2 40.1 SSW | 194 5.4 13.2 SSW | 198
9/3/26 - 0740 48.8 45 28.3 40.2 SSW | 204 6.3 16.8 S | 172
9/3/26 - 0735 48.9 45 28.3 40.2 S | 191 5.5 16.8 S | 188
9/3/26 - 0730 48.8 45 28.2 40.1 SSW | 194 6.8 15.7 SSW | 198
9/3/26 - 0725 48.9 45 28.3 40.2 SSW | 202 7.3 18.0 SE | 144
9/3/26 - 0720 48.8 44 28.0 40.1 SW | 215 9.4 22.3 SSW | 195
9/3/26 - 0715 48.6 45 28.1 40.0 SSW | 206 5.5 12.2 SSW | 202
9/3/26 - 0710 48.5 45 28.0 40.0 SSW | 207 6.5 21.1 SSW | 212
9/3/26 - 0705 48.3 45 27.8 39.8 SSW | 208 5.6 19.0 S | 191
9/3/26 - 0700 48.2 45 27.7 39.7 SSW | 207 6.2 17.6 SSW | 203
9/3/26 - 0655 48.0 44 27.3 39.4 SSW | 203 7.2 19.0 SW | 232
9/3/26 - 0650 47.6 44 26.7 39.1 SSW | 209 4.3 13.0 S | 176
9/3/26 - 0645 47.4 44 26.6 38.9 SW | 214 2.5 13.0 SSE | 164
9/3/26 - 0640 47.3 44 26.3 38.8 SSW | 195 4.7 13.6 SSW | 211
9/3/26 - 0635 47.0 44 26.1 38.6 SSW | 210 4.4 16.5 S | 191
9/3/26 - 0630 46.8 43 25.8 38.3 SW | 221 2.5 6.9 SSW | 210
9/3/26 - 0625 46.7 44 25.7 38.3 SSW | 203 2.0 8.3 N | 4
9/3/26 - 0620 46.7 43 25.6 38.2 SE | 136 2.9 14.7 SSE | 165
9/3/26 - 0615 46.7 44 25.8 38.3 SSW | 201 2.6 11.2 S | 191
9/3/26 - 0610 46.8 43 25.6 38.3 W | 276 1.2 6.0 NE | 40
9/3/26 - 0605 46.8 43 25.7 38.3 WNW | 289 2.6 8.3 S | 184
9/3/26 - 0600 46.9 44 26.0 38.5 S | 187 3.8 16.2 SSW | 199
9/3/26 - 0555 46.4 44 25.6 38.1 ESE | 103 2.1 8.7 SSE | 168
9/3/26 - 0550 46.8 44 26.0 38.4 SSW | 199 2.0 12.6 SSW | 204
9/3/26 - 0545 46.9 44 26.3 38.6 SSW | 201 3.3 14.5 SSE | 164
9/3/26 - 0540 46.6 45 26.1 38.3 WSW | 254 1.2 5.2 SSW | 197
9/3/26 - 0535 46.8 44 26.2 38.5 W | 261 2.6 10.6 SSW | 207
9/3/26 - 0530 47.0 44 26.3 38.6 SSW | 200 3.3 13.6 SSW | 198
9/3/26 - 0525 47.2 44 26.6 38.9 SW | 231 6.3 16.1 WSW | 243
9/3/26 - 0520 46.8 44 26.0 38.4 WSW | 258 5.3 17.0 W | 267
9/3/26 - 0515 46.9 44 26.0 38.5 SSW | 200 4.0 17.7 SSW | 205
9/3/26 - 0510 46.9 44 25.9 38.5 SSW | 209 7.2 18.3 S | 182
9/3/26 - 0505 46.7 43 25.5 38.2 SSW | 203 6.3 14.8 W | 263
9/3/26 - 0500 46.7 43 25.1 38.1 SSW | 199 5.9 15.2 SSW | 199
9/3/26 - 0455 46.7 42 25.0 38.1 SSW | 206 9.7 19.7 SSW | 204
9/3/26 - 0450 46.6 43 25.2 38.0 SSW | 200 4.9 14.0 SSW | 205
9/3/26 - 0445 46.5 43 25.3 38.1 SSW | 208 2.6 9.8 SSW | 209
9/3/26 - 0440 46.4 43 25.1 38.0 SW | 235 4.0 15.1 SW | 218
9/3/26 - 0435 46.1 43 24.7 37.6 SW | 216 4.0 10.6 SW | 228
9/3/26 - 0430 46.2 43 24.7 37.7 SE | 135 5.4 15.1 S | 191
9/3/26 - 0425 46.3 43 24.8 37.8 S | 182 5.3 18.5 WSW | 249
9/3/26 - 0420 46.1 42 24.4 37.6 E | 95 3.6 14.9 S | 171
9/3/26 - 0415 46.2 42 24.5 37.7 SE | 133 1.9 11.0 E | 96
9/3/26 - 0410 46.5 42 24.5 37.9 SE | 145 5.5 14.2 ESE | 102
9/3/26 - 0405 46.8 42 25.0 38.1 SSE | 156 6.4 15.6 ESE | 120
9/3/26 - 0400 47.1 43 25.7 38.5 SSE | 157 8.4 21.8 E | 87
9/3/26 - 0355 46.9 43 25.4 38.3 SSE | 167 4.7 11.8 ESE | 109
9/3/26 - 0350 46.9 43 25.5 38.3 SSW | 207 6.3 18.2 NW | 306
9/3/26 - 0345 46.8 42 25.0 38.1 SSW | 198 6.7 24.9 SSW | 206
9/3/26 - 0340 46.8 42 24.7 38.0 SSW | 207 4.8 12.6 WSW | 246
9/3/26 - 0335 46.8 41 24.3 37.9 ESE | 106 4.0 9.6 SE | 143
9/3/26 - 0330 46.4 41 24.1 37.7 NNE | 31 1.5 4.7 NE | 48
9/3/26 - 0325 46.4 42 24.4 37.8 SW | 219 7.4 17.3 S | 189
9/3/26 - 0320 46.4 42 24.4 37.8 S | 187 3.2 9.3 W | 279
9/3/26 - 0315 47.0 41 24.8 38.2 SW | 214 4.0 13.4 SSW | 200
9/3/26 - 0310 47.0 41 24.4 38.1 SSE | 165 4.6 16.8 SW | 218
9/3/26 - 0305 47.2 41 24.6 38.2 SE | 132 5.6 14.8 ESE | 117
9/3/26 - 0300 47.8 41 25.3 38.8 SSE | 150 4.9 15.0 S | 189
9/3/26 - 0255 48.0 41 25.1 38.8 E | 95 4.3 18.1 ESE | 122
9/3/26 - 0250 48.1 40 25.0 38.8 ENE | 66 3.2 14.6 E | 94
9/3/26 - 0245 48.1 40 25.0 38.8 NNW | 337 5.0 15.2 NNE | 31
9/3/26 - 0240 48.8 40 25.4 39.3 E | 91 6.8 20.7 E | 98
9/3/26 - 0235 48.0 40 24.6 38.6 ENE | 77 7.1 23.2 E | 90
9/3/26 - 0230 48.5 40 25.4 39.2 ENE | 76 4.2 12.8 SSE | 153
9/3/26 - 0225 48.2 40 25.2 38.9 ESE | 105 5.7 16.1 SSE | 153
9/3/26 - 0220 48.6 40 25.6 39.2 SSE | 164 4.9 13.9 SSW | 203
9/3/26 - 0215 47.6 40 24.5 38.4 ESE | 113 6.2 18.8 ESE | 119
9/3/26 - 0210 45.7 40 22.7 36.9 NNE | 16 2.6 6.6 NNE | 17
9/3/26 - 0205 45.7 40 22.8 36.9 N | 1 0.9 4.3 NNE | 20
9/3/26 - 0200 46.3 40 23.4 37.4 NNE | 27 1.0 3.4 SW | 226
9/3/26 - 0155 46.2 41 23.6 37.4 NNE | 14 1.0 5.1 SSW | 213
9/3/26 - 0150 47.6 41 24.9 38.5 ENE | 62 2.0 7.1 N | 3
9/3/26 - 0145 48.9 40 25.8 39.5 N | 351 2.6 8.5 S | 185
9/3/26 - 0140 48.7 40 25.2 39.2 SSE | 165 6.5 15.7 S | 186
9/3/26 - 0135 49.2 40 25.8 39.6 SE | 145 8.9 24.7 SSE | 152
9/3/26 - 0130 49.4 40 26.2 39.8 SE | 127 6.1 22.5 SE | 124
9/3/26 - 0125 49.8 41 26.9 40.3 E | 84 4.1 15.1 ESE | 120
9/3/26 - 0120 49.5 40 26.2 39.9 NNE | 31 4.9 11.4 ESE | 111
9/3/26 - 0115 49.6 41 27.0 40.2 NNW | 347 5.3 11.5 NW | 316
9/3/26 - 0110 50.0 41 27.4 40.5 NNW | 341 3.5 10.3 NNW | 343
9/3/26 - 0105 50.1 42 27.8 40.7 NNW | 347 3.7 11.0 ENE | 58
9/3/26 - 0100 50.2 42 28.3 40.9 NNE | 22 4.3 12.8 NNW | 346
9/3/26 - 0055 50.5 42 28.5 41.2 SW | 236 3.6 16.9 WNW | 288
9/3/26 - 0050 50.3 42 28.0 40.8 WSW | 246 3.3 11.5 SW | 227
9/3/26 - 0045 50.3 41 27.5 40.7 SW | 220 4.7 17.0 SW | 222
9/3/26 - 0040 50.5 42 28.3 41.1 SW | 218 2.2 6.9 SSW | 212
9/3/26 - 0035 50.7 41 27.8 41.0 WSW | 241 2.5 11.5 SW | 214
9/3/26 - 0030 50.7 40 27.1 40.8 SW | 225 3.1 13.1 W | 273
9/3/26 - 0025 50.8 40 27.2 40.8 SSW | 205 3.0 12.0 W | 276
9/3/26 - 0020 50.2 41 27.1 40.5 SE | 141 0.8 5.8 SW | 221
9/3/26 - 0015 50.2 41 27.2 40.5 S | 169 2.8 12.2 SSE | 161
9/3/26 - 0010 49.6 41 26.8 40.1 SW | 215 2.9 10.7 SW | 224
9/3/26 - 0005 49.3 41 26.4 39.8 SSW | 213 2.1 8.8 SSW | 201
9/3/26 - 0000 50.0 40 26.8 40.3 SW | 221 3.0 10.7 SSE | 167
9/2/26 - 2355 50.1 40 26.5 40.3 SW | 233 3.6 13.0 WSW | 244
9/2/26 - 2350 49.6 39 26.0 39.9 SSW | 204 3.3 11.3 S | 172
9/2/26 - 2345 48.9 40 25.6 39.4 WSW | 248 3.5 8.6 WSW | 250
9/2/26 - 2340 48.4 40 25.1 39.0 SSW | 211 2.2 9.4 WSW | 252
9/2/26 - 2335 48.5 40 25.2 39.1 WSW | 246 2.6 8.3 WSW | 250
9/2/26 - 2330 48.2 40 24.9 38.8 SSW | 211 2.3 6.1 SW | 217
9/2/26 - 2325 49.0 40 25.9 39.6 WSW | 245 4.0 9.1 WSW | 245
9/2/26 - 2320 48.8 40 25.7 39.4 SSW | 209 2.9 8.7 SSE | 155
9/2/26 - 2315 48.4 41 25.6 39.2 SW | 228 2.5 9.8 SW | 225
9/2/26 - 2310 48.5 41 25.6 39.2 WSW | 254 3.4 13.6 W | 275
9/2/26 - 2305 48.4 40 25.5 39.1 SW | 217 2.0 7.2 SSW | 199
9/2/26 - 2300 48.9 40 25.8 39.5 SSW | 194 1.4 5.2 WSW | 238
9/2/26 - 2255 48.3 40 25.2 39.0 SW | 214 1.3 5.9 S | 176
9/2/26 - 2250 48.7 40 25.6 39.3 WSW | 250 3.9 9.3 SW | 233
9/2/26 - 2245 48.4 41 25.6 39.2 WSW | 248 2.9 8.2 WSW | 245
9/2/26 - 2240 47.8 40 24.7 38.6 WSW | 244 2.5 8.0 WSW | 250
9/2/26 - 2235 47.5 40 24.5 38.4 WSW | 239 1.7 5.4 W | 263
9/2/26 - 2230 47.6 40 24.4 38.4 W | 260 1.4 8.5 WNW | 284
9/2/26 - 2225 48.1 40 25.1 38.8 WSW | 241 1.7 6.9 WSW | 243
9/2/26 - 2220 47.8 39 24.4 38.5 WSW | 242 1.7 5.3 SSW | 212
9/2/26 - 2215 48.1 40 24.8 38.8 WSW | 246 2.3 6.9 WSW | 250
9/2/26 - 2210 48.0 40 24.6 38.6 SSW | 196 1.2 4.4 SSE | 154
9/2/26 - 2205 48.1 39 24.1 38.6 SW | 218 3.6 7.9 S | 188
9/2/26 - 2200 47.8 39 24.1 38.4 WSW | 242 3.6 11.3 W | 264
9/2/26 - 2155 46.0 39 22.4 37.0 NW | 316 0.5 3.0 NNE | 22
9/2/26 - 2150 46.1 39 22.5 37.0 SSE | 164 0.7 3.0 W | 260
9/2/26 - 2145 46.1 39 22.6 37.1 SSE | 167 0.5 3.6 SSE | 153
9/2/26 - 2140 46.0 39 22.6 37.0 SSW | 197 0.9 5.0 S | 170
9/2/26 - 2135 46.0 39 22.6 37.0 SSW | 192 0.6 2.7 SE | 140
9/2/26 - 2130 45.8 39 22.4 36.9 SSW | 202 0.9 4.2 S | 178
9/2/26 - 2125 45.8 39 22.2 36.8 SW | 222 0.9 3.2 SE | 141
9/2/26 - 2120 45.7 39 22.1 36.7 SSW | 205 0.8 3.0 SW | 235
9/2/26 - 2115 45.5 39 22.1 36.6 S | 169 0.6 2.9 S | 188
9/2/26 - 2110 45.4 39 22.0 36.5 SSW | 213 1.2 7.0 SW | 225
9/2/26 - 2105 44.9 39 21.6 36.2 SSW | 198 0.1 2.1 SSW | 201
9/2/26 - 2100 44.6 41 22.1 36.1 SSE | 160 0.1 2.1 SSW | 196
9/2/26 - 2055 44.8 40 21.8 36.2 SE | 144 0.3 1.9 SE | 130
9/2/26 - 2050 45.4 40 22.3 36.6 SSW | 196 1.8 6.3 S | 190
9/2/26 - 2045 45.4 39 22.0 36.5 S | 186 1.6 7.1 SSW | 212
9/2/26 - 2040 45.3 40 22.1 36.5 SSW | 197 0.4 2.8 WSW | 247
9/2/26 - 2035 45.1 39 21.6 36.3 S | 180 0.5 3.4 SSE | 167
9/2/26 - 2030 45.4 40 22.4 36.6 SSW | 197 1.7 8.8 SSW | 192
9/2/26 - 2025 45.4 40 22.2 36.6 SW | 218 1.8 4.5 WSW | 249
9/2/26 - 2020 45.4 39 21.9 36.5 SW | 226 2.4 7.2 SW | 236
9/2/26 - 2015 45.5 38 21.5 36.4 SSW | 196 5.5 13.4 S | 185
9/2/26 - 2010 45.5 38 21.5 36.4 S | 170 3.5 9.9 S | 190
9/2/26 - 2005 45.6 38 21.8 36.6 S | 169 2.5 10.3 S | 184
9/2/26 - 2000 45.7 39 22.0 36.7 S | 176 3.0 7.3 SSW | 210
9/2/26 - 1955 45.8 39 22.1 36.8 S | 182 3.5 8.5 S | 182
9/2/26 - 1950 46.1 39 22.6 37.1 S | 187 7.9 17.4 S | 179
9/2/26 - 1945 46.2 39 22.5 37.1 S | 172 5.2 14.6 S | 185
9/2/26 - 1940 46.6 39 22.9 37.4 SW | 232 2.1 10.4 SW | 222
9/2/26 - 1935 46.6 38 22.6 37.3 S | 184 6.0 13.2 SSW | 209
9/2/26 - 1930 46.7 39 23.1 37.5 S | 178 4.7 10.7 SSE | 163
9/2/26 - 1925 46.9 39 23.2 37.7 S | 174 5.0 10.8 SE | 126
9/2/26 - 1920 47.1 39 23.4 37.9 S | 176 4.2 9.3 S | 184
9/2/26 - 1915 47.3 39 23.7 38.0 S | 180 3.5 7.9 S | 173
9/2/26 - 1910 47.6 39 24.1 38.3 S | 179 2.6 8.9 SSW | 193
9/2/26 - 1905 47.8 40 24.7 38.6 SW | 217 2.5 9.8 W | 264
9/2/26 - 1900 48.0 40 24.7 38.7 SW | 226 4.8 13.0 WSW | 253
9/2/26 - 1855 48.2 40 25.1 38.9 WSW | 239 3.5 9.6 WSW | 255
9/2/26 - 1850 48.3 40 25.1 39.0 SW | 217 3.9 10.8 S | 170
9/2/26 - 1845 48.4 40 25.2 39.0 SW | 215 3.2 12.6 WSW | 256
9/2/26 - 1840 48.7 40 25.2 39.2 SSW | 211 1.8 6.9 S | 190
9/2/26 - 1835 48.7 40 25.2 39.2 SW | 219 4.7 13.0 SSW | 208
9/2/26 - 1830 49.0 40 25.6 39.5 SW | 223 2.8 7.1 W | 270
9/2/26 - 1825 49.0 40 25.7 39.5 S | 180 3.2 7.5 SSW | 205
9/2/26 - 1820 49.3 40 26.1 39.7 S | 181 2.2 16.7 S | 179
9/2/26 - 1815 49.5 40 26.3 39.9 SSW | 195 4.2 14.7 SSE | 158
9/2/26 - 1810 49.7 40 26.7 40.2 SSW | 192 3.3 12.4 SSE | 164
9/2/26 - 1805 50.0 40 26.6 40.2 SSW | 193 4.8 10.8 S | 185
9/2/26 - 1800 50.0 41 27.0 40.4 SW | 217 5.0 12.3 SSE | 164
9/2/26 - 1755 50.2 41 27.3 40.6 SW | 219 5.0 11.0 WSW | 238
9/2/26 - 1750 50.4 40 27.3 40.7 SSW | 202 5.1 13.1 S | 175
9/2/26 - 1745 50.6 42 28.2 41.0 SW | 227 4.5 10.4 S | 185
9/2/26 - 1740 50.8 41 28.2 41.1 SW | 218 4.0 10.5 SSE | 165
9/2/26 - 1735 50.7 40 27.0 40.7 WSW | 243 4.9 12.7 W | 261
9/2/26 - 1730 50.8 40 27.2 40.9 SW | 218 5.3 15.0 SSW | 201
9/2/26 - 1725 51.2 40 28.1 41.4 SW | 235 4.7 14.9 SW | 230
9/2/26 - 1720 50.9 41 28.0 41.2 SW | 228 6.0 17.5 SSW | 211
9/2/26 - 1715 51.4 41 28.6 41.6 SW | 220 4.3 15.0 SSW | 196
9/2/26 - 1710 51.0 41 28.0 41.2 SSW | 202 7.2 18.7 S | 170
9/2/26 - 1705 50.9 41 27.9 41.1 WSW | 247 6.8 20.0 WSW | 244
9/2/26 - 1700 51.6 42 29.0 41.8 WSW | 244 6.2 21.9 W | 266
9/2/26 - 1655 51.4 41 28.6 41.6 SW | 220 4.9 12.6 SW | 225
9/2/26 - 1650 51.4 41 28.4 41.5 SSW | 193 7.2 16.4 SW | 230
9/2/26 - 1645 51.6 41 28.6 41.7 SW | 217 5.5 16.0 SSW | 206
9/2/26 - 1640 51.6 41 28.5 41.7 SSW | 197 5.9 16.3 S | 188
9/2/26 - 1635 51.6 40 28.2 41.6 SW | 221 8.0 19.6 S | 183
9/2/26 - 1630 52.3 40 28.7 42.1 SSW | 202 6.7 19.4 S | 182
9/2/26 - 1625 52.8 40 29.2 42.5 SW | 218 4.6 15.2 S | 170
9/2/26 - 1620 53.1 41 30.0 42.9 WSW | 240 3.1 11.9 S | 180
9/2/26 - 1615 52.9 41 30.0 42.8 S | 182 5.0 13.4 SSW | 195
9/2/26 - 1610 52.9 41 30.1 42.8 WSW | 241 5.2 13.3 SW | 224
9/2/26 - 1605 52.7 41 29.8 42.6 SW | 234 4.8 13.6 W | 261
9/2/26 - 1600 52.2 41 29.3 42.2 S | 170 5.9 15.8 S | 187
9/2/26 - 1555 52.4 41 29.6 42.4 SSW | 201 5.9 16.0 SSE | 152
9/2/26 - 1550 51.4 41 28.6 41.6 SW | 229 4.5 15.6 S | 186
9/2/26 - 1545 52.1 41 28.8 42.0 WSW | 242 6.4 19.4 SSW | 202
9/2/26 - 1540 52.7 40 29.1 42.4 SSW | 202 4.7 21.2 S | 178
9/2/26 - 1535 52.8 40 29.2 42.5 SW | 223 6.0 16.5 SSW | 207
9/2/26 - 1530 52.2 40 28.8 42.0 SSW | 198 8.2 23.1 S | 174
9/2/26 - 1525 52.9 40 29.5 42.6 SSW | 204 5.2 21.1 SSE | 163
9/2/26 - 1520 52.4 41 29.2 42.3 SW | 218 6.6 17.7 S | 180
9/2/26 - 1515 51.7 41 28.6 41.7 SSW | 194 7.3 15.3 SSE | 166
9/2/26 - 1510 52.8 41 30.0 42.7 S | 173 7.4 21.1 SSE | 152
Max 57.0 45 34.2 46.0 - 12.7 29.4 -
Avg 49.8 42 27.4 40.4 - 5.2 14.6 -
Min 44.6 38 21.5 36.1 - 0.1 1.9 -